sensor_id;sensor_type;location;lat;lon;timestamp;temperature;humidity
44565;DHT22;30275;51.822;-0.326;2022-10-28T00:01:07;15.40;99.90
44565;DHT22;30275;51.822;-0.326;2022-10-28T00:03:36;15.40;99.90
44565;DHT22;30275;51.822;-0.326;2022-10-28T00:06:10;15.40;99.90
44565;DHT22;30275;51.822;-0.326;2022-10-28T00:08:36;15.50;99.90
44565;DHT22;30275;51.822;-0.326;2022-10-28T00:13:32;15.30;99.90
44565;DHT22;30275;51.822;-0.326;2022-10-28T00:16:28;15.30;99.90
44565;DHT22;30275;51.822;-0.326;2022-10-28T00:18:55;15.40;99.90
44565;DHT22;30275;51.822;-0.326;2022-10-28T00:21:24;15.40;99.90
44565;DHT22;30275;51.822;-0.326;2022-10-28T00:23:50;15.40;99.90
44565;DHT22;30275;51.822;-0.326;2022-10-28T00:26:19;15.40;99.90
44565;DHT22;30275;51.822;-0.326;2022-10-28T00:28:56;15.40;99.90
44565;DHT22;30275;51.822;-0.326;2022-10-28T00:31:23;15.30;99.90
44565;DHT22;30275;51.822;-0.326;2022-10-28T00:33:49;15.30;99.90
44565;DHT22;30275;51.822;-0.326;2022-10-28T00:36:17;15.20;99.90
44565;DHT22;30275;51.822;-0.326;2022-10-28T00:38:45;15.20;99.90
44565;DHT22;30275;51.822;-0.326;2022-10-28T00:41:13;15.20;99.90
44565;DHT22;30275;51.822;-0.326;2022-10-28T00:43:51;15.20;99.90
44565;DHT22;30275;51.822;-0.326;2022-10-28T00:46:44;15.20;99.90
44565;DHT22;30275;51.822;-0.326;2022-10-28T00:49:27;15.30;99.90
44565;DHT22;30275;51.822;-0.326;2022-10-28T00:52:04;15.20;99.90
44565;DHT22;30275;51.822;-0.326;2022-10-28T00:54:31;15.20;99.90
44565;DHT22;30275;51.822;-0.326;2022-10-28T00:56:59;15.20;99.90
44565;DHT22;30275;51.822;-0.326;2022-10-28T00:59:34;15.20;99.90
44565;DHT22;30275;51.822;-0.326;2022-10-28T01:02:00;15.30;99.90
44565;DHT22;30275;51.822;-0.326;2022-10-28T01:04:27;15.30;99.90
44565;DHT22;30275;51.822;-0.326;2022-10-28T01:06:53;15.40;99.90
44565;DHT22;30275;51.822;-0.326;2022-10-28T01:09:19;15.40;99.90
44565;DHT22;30275;51.822;-0.326;2022-10-28T01:11:53;15.40;99.90
44565;DHT22;30275;51.822;-0.326;2022-10-28T01:23:46;15.40;99.90
44565;DHT22;30275;51.822;-0.326;2022-10-28T01:25:59;15.30;99.90
44565;DHT22;30275;51.822;-0.326;2022-10-28T01:28:56;15.30;99.90
44565;DHT22;30275;51.822;-0.326;2022-10-28T01:31:39;15.20;99.90
44565;DHT22;30275;51.822;-0.326;2022-10-28T01:39:56;15.20;99.90
44565;DHT22;30275;51.822;-0.326;2022-10-28T01:47:44;15.20;99.90
44565;DHT22;30275;51.822;-0.326;2022-10-28T01:53:12;15.30;99.90
44565;DHT22;30275;51.822;-0.326;2022-10-28T01:55:45;15.30;99.90
44565;DHT22;30275;51.822;-0.326;2022-10-28T01:58:15;15.30;99.90
44565;DHT22;30275;51.822;-0.326;2022-10-28T02:00:43;15.20;99.90
44565;DHT22;30275;51.822;-0.326;2022-10-28T02:03:10;15.20;99.90
44565;DHT22;30275;51.822;-0.326;2022-10-28T02:05:50;15.20;99.90
44565;DHT22;30275;51.822;-0.326;2022-10-28T02:13:56;15.10;99.90
44565;DHT22;30275;51.822;-0.326;2022-10-28T02:26:59;15.00;99.90
44565;DHT22;30275;51.822;-0.326;2022-10-28T02:29:27;14.90;99.90
44565;DHT22;30275;51.822;-0.326;2022-10-28T02:31:59;14.90;99.90
44565;DHT22;30275;51.822;-0.326;2022-10-28T02:34:32;14.80;99.90
44565;DHT22;30275;51.822;-0.326;2022-10-28T02:36:58;14.80;99.90
44565;DHT22;30275;51.822;-0.326;2022-10-28T02:39:35;14.80;99.90
44565;DHT22;30275;51.822;-0.326;2022-10-28T02:42:10;14.70;99.90
44565;DHT22;30275;51.822;-0.326;2022-10-28T02:44:41;14.80;99.90
44565;DHT22;30275;51.822;-0.326;2022-10-28T02:47:13;14.70;99.90
44565;DHT22;30275;51.822;-0.326;2022-10-28T02:49:42;14.60;99.90
44565;DHT22;30275;51.822;-0.326;2022-10-28T02:52:09;14.70;99.90
44565;DHT22;30275;51.822;-0.326;2022-10-28T02:54:46;14.70;99.90
44565;DHT22;30275;51.822;-0.326;2022-10-28T02:57:16;14.60;99.90
44565;DHT22;30275;51.822;-0.326;2022-10-28T02:59:54;14.60;99.90
44565;DHT22;30275;51.822;-0.326;2022-10-28T03:02:20;14.60;99.90
44565;DHT22;30275;51.822;-0.326;2022-10-28T03:04:46;14.50;99.90
44565;DHT22;30275;51.822;-0.326;2022-10-28T03:07:12;14.50;99.90
44565;DHT22;30275;51.822;-0.326;2022-10-28T03:09:37;14.50;99.90
44565;DHT22;30275;51.822;-0.326;2022-10-28T03:12:03;14.50;99.90
44565;DHT22;30275;51.822;-0.326;2022-10-28T03:14:29;14.60;99.90
44565;DHT22;30275;51.822;-0.326;2022-10-28T03:16:54;14.60;99.90
44565;DHT22;30275;51.822;-0.326;2022-10-28T03:19:20;14.50;99.90
44565;DHT22;30275;51.822;-0.326;2022-10-28T03:21:46;14.50;99.90
44565;DHT22;30275;51.822;-0.326;2022-10-28T03:24:11;14.50;99.90
44565;DHT22;30275;51.822;-0.326;2022-10-28T03:26:37;14.50;99.90
44565;DHT22;30275;51.822;-0.326;2022-10-28T03:29:02;14.50;99.90
44565;DHT22;30275;51.822;-0.326;2022-10-28T03:31:28;14.50;99.90
44565;DHT22;30275;51.822;-0.326;2022-10-28T03:33:53;14.50;99.90
44565;DHT22;30275;51.822;-0.326;2022-10-28T03:36:19;14.50;99.90
44565;DHT22;30275;51.822;-0.326;2022-10-28T03:38:45;14.50;99.90
44565;DHT22;30275;51.822;-0.326;2022-10-28T03:41:10;14.40;99.90
44565;DHT22;30275;51.822;-0.326;2022-10-28T03:43:36;14.50;99.90
44565;DHT22;30275;51.822;-0.326;2022-10-28T03:46:01;14.50;99.90
44565;DHT22;30275;51.822;-0.326;2022-10-28T03:48:27;14.50;99.90
44565;DHT22;30275;51.822;-0.326;2022-10-28T03:50:53;14.50;99.90
44565;DHT22;30275;51.822;-0.326;2022-10-28T03:53:20;14.50;99.90
44565;DHT22;30275;51.822;-0.326;2022-10-28T03:55:56;14.50;99.90
44565;DHT22;30275;51.822;-0.326;2022-10-28T03:58:23;14.40;99.90
44565;DHT22;30275;51.822;-0.326;2022-10-28T04:00:50;14.30;99.90
44565;DHT22;30275;51.822;-0.326;2022-10-28T04:03:17;14.40;99.90
44565;DHT22;30275;51.822;-0.326;2022-10-28T04:05:43;14.40;99.90
44565;DHT22;30275;51.822;-0.326;2022-10-28T04:08:09;14.40;99.90
44565;DHT22;30275;51.822;-0.326;2022-10-28T04:10:34;14.40;99.90
44565;DHT22;30275;51.822;-0.326;2022-10-28T04:13:01;14.40;99.90
44565;DHT22;30275;51.822;-0.326;2022-10-28T04:15:27;14.40;99.90
44565;DHT22;30275;51.822;-0.326;2022-10-28T04:17:53;14.30;99.90
44565;DHT22;30275;51.822;-0.326;2022-10-28T04:20:18;14.20;99.90
44565;DHT22;30275;51.822;-0.326;2022-10-28T04:22:44;14.30;99.90
44565;DHT22;30275;51.822;-0.326;2022-10-28T04:25:10;14.30;99.90
44565;DHT22;30275;51.822;-0.326;2022-10-28T04:27:35;14.30;99.90
44565;DHT22;30275;51.822;-0.326;2022-10-28T04:30:02;14.20;99.90
44565;DHT22;30275;51.822;-0.326;2022-10-28T04:32:27;14.20;99.90
44565;DHT22;30275;51.822;-0.326;2022-10-28T04:34:53;14.30;99.90
44565;DHT22;30275;51.822;-0.326;2022-10-28T04:37:19;14.30;99.90
44565;DHT22;30275;51.822;-0.326;2022-10-28T04:39:44;14.30;99.90
44565;DHT22;30275;51.822;-0.326;2022-10-28T04:42:10;14.30;99.90
44565;DHT22;30275;51.822;-0.326;2022-10-28T04:44:35;14.30;99.90
44565;DHT22;30275;51.822;-0.326;2022-10-28T04:47:01;14.30;99.90
44565;DHT22;30275;51.822;-0.326;2022-10-28T04:49:27;14.30;99.90
44565;DHT22;30275;51.822;-0.326;2022-10-28T04:51:52;14.30;99.90
44565;DHT22;30275;51.822;-0.326;2022-10-28T04:54:18;14.30;99.90
44565;DHT22;30275;51.822;-0.326;2022-10-28T04:56:43;14.40;99.90
44565;DHT22;30275;51.822;-0.326;2022-10-28T04:59:09;14.30;99.90
44565;DHT22;30275;51.822;-0.326;2022-10-28T05:01:35;14.30;99.90
44565;DHT22;30275;51.822;-0.326;2022-10-28T05:04:00;14.40;99.90
44565;DHT22;30275;51.822;-0.326;2022-10-28T05:06:26;14.40;99.90
44565;DHT22;30275;51.822;-0.326;2022-10-28T05:08:52;14.50;99.90
44565;DHT22;30275;51.822;-0.326;2022-10-28T05:11:17;14.40;99.90
44565;DHT22;30275;51.822;-0.326;2022-10-28T05:13:43;14.50;99.90
44565;DHT22;30275;51.822;-0.326;2022-10-28T05:16:09;14.50;99.90
44565;DHT22;30275;51.822;-0.326;2022-10-28T05:18:34;14.50;99.90
44565;DHT22;30275;51.822;-0.326;2022-10-28T05:21:00;14.60;99.90
44565;DHT22;30275;51.822;-0.326;2022-10-28T05:23:25;14.60;99.90
44565;DHT22;30275;51.822;-0.326;2022-10-28T05:25:51;14.60;99.90
44565;DHT22;30275;51.822;-0.326;2022-10-28T05:28:17;14.60;99.90
44565;DHT22;30275;51.822;-0.326;2022-10-28T05:30:43;14.70;99.90
44565;DHT22;30275;51.822;-0.326;2022-10-28T05:33:10;14.60;99.90
44565;DHT22;30275;51.822;-0.326;2022-10-28T05:35:39;14.70;99.90
44565;DHT22;30275;51.822;-0.326;2022-10-28T05:38:05;14.60;99.90
44565;DHT22;30275;51.822;-0.326;2022-10-28T05:40:31;14.70;99.90
44565;DHT22;30275;51.822;-0.326;2022-10-28T05:43:02;14.70;99.90
44565;DHT22;30275;51.822;-0.326;2022-10-28T05:45:28;14.70;99.90
44565;DHT22;30275;51.822;-0.326;2022-10-28T05:47:54;14.70;99.90
44565;DHT22;30275;51.822;-0.326;2022-10-28T05:50:20;14.80;99.90
44565;DHT22;30275;51.822;-0.326;2022-10-28T05:52:51;14.80;99.90
44565;DHT22;30275;51.822;-0.326;2022-10-28T05:55:18;14.80;99.90
44565;DHT22;30275;51.822;-0.326;2022-10-28T05:57:48;14.90;99.90
44565;DHT22;30275;51.822;-0.326;2022-10-28T06:00:15;14.90;99.90
44565;DHT22;30275;51.822;-0.326;2022-10-28T06:02:42;14.90;99.90
44565;DHT22;30275;51.822;-0.326;2022-10-28T06:05:08;14.90;99.90
44565;DHT22;30275;51.822;-0.326;2022-10-28T06:07:34;15.00;99.90
44565;DHT22;30275;51.822;-0.326;2022-10-28T06:10:01;15.00;99.90
44565;DHT22;30275;51.822;-0.326;2022-10-28T06:12:27;15.00;99.90
44565;DHT22;30275;51.822;-0.326;2022-10-28T06:14:52;15.00;99.90
44565;DHT22;30275;51.822;-0.326;2022-10-28T06:17:18;15.00;99.90
44565;DHT22;30275;51.822;-0.326;2022-10-28T06:19:44;15.10;99.90
44565;DHT22;30275;51.822;-0.326;2022-10-28T06:22:10;15.10;99.90
44565;DHT22;30275;51.822;-0.326;2022-10-28T06:24:36;15.20;99.90
44565;DHT22;30275;51.822;-0.326;2022-10-28T06:27:02;15.20;99.90
44565;DHT22;30275;51.822;-0.326;2022-10-28T06:29:27;15.20;99.90
44565;DHT22;30275;51.822;-0.326;2022-10-28T06:31:53;15.20;99.90
44565;DHT22;30275;51.822;-0.326;2022-10-28T06:34:19;15.10;99.90
44565;DHT22;30275;51.822;-0.326;2022-10-28T06:36:44;15.10;99.90
44565;DHT22;30275;51.822;-0.326;2022-10-28T06:39:10;15.10;99.90
44565;DHT22;30275;51.822;-0.326;2022-10-28T06:41:35;15.10;99.90
44565;DHT22;30275;51.822;-0.326;2022-10-28T06:44:01;15.20;99.90
44565;DHT22;30275;51.822;-0.326;2022-10-28T06:46:27;15.10;99.90
44565;DHT22;30275;51.822;-0.326;2022-10-28T06:48:54;15.10;99.90
44565;DHT22;30275;51.822;-0.326;2022-10-28T06:51:22;15.20;99.90
44565;DHT22;30275;51.822;-0.326;2022-10-28T06:53:52;15.10;99.90
44565;DHT22;30275;51.822;-0.326;2022-10-28T06:56:18;15.20;99.90
44565;DHT22;30275;51.822;-0.326;2022-10-28T06:58:43;15.30;99.90
44565;DHT22;30275;51.822;-0.326;2022-10-28T07:01:09;15.30;99.90
44565;DHT22;30275;51.822;-0.326;2022-10-28T07:03:35;15.50;99.90
44565;DHT22;30275;51.822;-0.326;2022-10-28T07:06:00;15.50;99.90
44565;DHT22;30275;51.822;-0.326;2022-10-28T07:08:27;15.70;99.90
44565;DHT22;30275;51.822;-0.326;2022-10-28T07:10:57;15.70;99.90
44565;DHT22;30275;51.822;-0.326;2022-10-28T07:13:23;15.70;99.90
44565;DHT22;30275;51.822;-0.326;2022-10-28T07:15:57;15.80;99.90
44565;DHT22;30275;51.822;-0.326;2022-10-28T07:18:28;15.80;99.90
44565;DHT22;30275;51.822;-0.326;2022-10-28T07:20:57;15.90;99.90
44565;DHT22;30275;51.822;-0.326;2022-10-28T07:23:24;15.90;99.90
44565;DHT22;30275;51.822;-0.326;2022-10-28T07:25:56;15.90;99.90
44565;DHT22;30275;51.822;-0.326;2022-10-28T07:28:22;15.90;99.90
44565;DHT22;30275;51.822;-0.326;2022-10-28T07:30:48;16.00;99.90
44565;DHT22;30275;51.822;-0.326;2022-10-28T07:33:14;16.10;99.90
44565;DHT22;30275;51.822;-0.326;2022-10-28T07:35:40;16.10;99.90
44565;DHT22;30275;51.822;-0.326;2022-10-28T07:38:07;16.20;99.90
44565;DHT22;30275;51.822;-0.326;2022-10-28T07:40:32;16.20;99.90
44565;DHT22;30275;51.822;-0.326;2022-10-28T07:42:58;16.30;99.90
44565;DHT22;30275;51.822;-0.326;2022-10-28T07:45:24;16.40;99.90
44565;DHT22;30275;51.822;-0.326;2022-10-28T07:47:49;16.50;99.90
44565;DHT22;30275;51.822;-0.326;2022-10-28T07:50:15;16.60;99.90
44565;DHT22;30275;51.822;-0.326;2022-10-28T07:52:41;16.60;99.90
44565;DHT22;30275;51.822;-0.326;2022-10-28T07:55:08;16.60;99.90
44565;DHT22;30275;51.822;-0.326;2022-10-28T07:57:34;16.70;99.90
44565;DHT22;30275;51.822;-0.326;2022-10-28T08:00:00;16.60;99.90
44565;DHT22;30275;51.822;-0.326;2022-10-28T08:02:26;16.70;99.90
44565;DHT22;30275;51.822;-0.326;2022-10-28T08:04:51;16.80;99.90
44565;DHT22;30275;51.822;-0.326;2022-10-28T08:07:18;16.90;99.90
44565;DHT22;30275;51.822;-0.326;2022-10-28T08:09:44;17.00;99.90
44565;DHT22;30275;51.822;-0.326;2022-10-28T08:12:13;17.00;99.90
44565;DHT22;30275;51.822;-0.326;2022-10-28T08:14:38;17.00;99.90
44565;DHT22;30275;51.822;-0.326;2022-10-28T08:17:04;17.10;99.90
44565;DHT22;30275;51.822;-0.326;2022-10-28T08:19:30;17.10;99.90
44565;DHT22;30275;51.822;-0.326;2022-10-28T08:21:56;17.00;99.90
44565;DHT22;30275;51.822;-0.326;2022-10-28T08:24:22;17.10;99.90
44565;DHT22;30275;51.822;-0.326;2022-10-28T08:26:47;17.10;99.90
44565;DHT22;30275;51.822;-0.326;2022-10-28T08:29:13;17.10;99.90
44565;DHT22;30275;51.822;-0.326;2022-10-28T08:31:39;17.10;99.90
44565;DHT22;30275;51.822;-0.326;2022-10-28T08:34:05;17.10;99.90
44565;DHT22;30275;51.822;-0.326;2022-10-28T08:36:32;17.10;99.90
44565;DHT22;30275;51.822;-0.326;2022-10-28T08:38:58;17.10;99.90
44565;DHT22;30275;51.822;-0.326;2022-10-28T08:46:58;17.10;99.90
44565;DHT22;30275;51.822;-0.326;2022-10-28T08:49:29;17.10;99.90
44565;DHT22;30275;51.822;-0.326;2022-10-28T08:52:04;17.20;99.90
44565;DHT22;30275;51.822;-0.326;2022-10-28T08:57:30;17.30;99.90
44565;DHT22;30275;51.822;-0.326;2022-10-28T08:59:57;17.40;99.90
44565;DHT22;30275;51.822;-0.326;2022-10-28T09:02:27;17.50;99.90
44565;DHT22;30275;51.822;-0.326;2022-10-28T09:05:16;17.50;99.90
44565;DHT22;30275;51.822;-0.326;2022-10-28T09:07:43;17.70;99.90
44565;DHT22;30275;51.822;-0.326;2022-10-28T09:10:12;18.00;99.90
44565;DHT22;30275;51.822;-0.326;2022-10-28T09:12:57;18.60;99.90
44565;DHT22;30275;51.822;-0.326;2022-10-28T09:18:17;18.90;99.90
44565;DHT22;30275;51.822;-0.326;2022-10-28T09:20:53;18.80;99.90
44565;DHT22;30275;51.822;-0.326;2022-10-28T09:31:38;18.40;99.90
44565;DHT22;30275;51.822;-0.326;2022-10-28T09:34:16;18.20;99.90
44565;DHT22;30275;51.822;-0.326;2022-10-28T09:39:39;17.90;99.90
44565;DHT22;30275;51.822;-0.326;2022-10-28T09:42:07;17.80;99.90
44565;DHT22;30275;51.822;-0.326;2022-10-28T09:44:40;17.70;99.90
44565;DHT22;30275;51.822;-0.326;2022-10-28T09:47:15;17.70;99.90
44565;DHT22;30275;51.822;-0.326;2022-10-28T09:49:44;17.70;99.90
44565;DHT22;30275;51.822;-0.326;2022-10-28T09:52:17;17.90;99.90
44565;DHT22;30275;51.822;-0.326;2022-10-28T09:54:50;17.80;99.90
44565;DHT22;30275;51.822;-0.326;2022-10-28T09:57:16;17.90;99.90
44565;DHT22;30275;51.822;-0.326;2022-10-28T09:59:42;18.00;99.90
44565;DHT22;30275;51.822;-0.326;2022-10-28T10:02:28;18.10;99.90
44565;DHT22;30275;51.822;-0.326;2022-10-28T10:04:58;18.10;99.90
44565;DHT22;30275;51.822;-0.326;2022-10-28T10:07:32;18.20;99.90
44565;DHT22;30275;51.822;-0.326;2022-10-28T10:10:04;18.50;99.90
44565;DHT22;30275;51.822;-0.326;2022-10-28T10:12:30;18.80;99.90
44565;DHT22;30275;51.822;-0.326;2022-10-28T10:14:57;18.90;99.90
44565;DHT22;30275;51.822;-0.326;2022-10-28T10:17:28;19.20;99.90
44565;DHT22;30275;51.822;-0.326;2022-10-28T10:22:41;19.50;99.90
44565;DHT22;30275;51.822;-0.326;2022-10-28T10:27:54;18.80;99.90
44565;DHT22;30275;51.822;-0.326;2022-10-28T10:30:33;18.50;99.90
44565;DHT22;30275;51.822;-0.326;2022-10-28T10:33:01;18.50;99.90
44565;DHT22;30275;51.822;-0.326;2022-10-28T10:35:32;18.30;99.90
44565;DHT22;30275;51.822;-0.326;2022-10-28T10:38:00;18.20;99.90
44565;DHT22;30275;51.822;-0.326;2022-10-28T10:40:34;18.10;99.90
44565;DHT22;30275;51.822;-0.326;2022-10-28T10:43:33;17.90;99.90
44565;DHT22;30275;51.822;-0.326;2022-10-28T10:48:33;17.70;99.90
44565;DHT22;30275;51.822;-0.326;2022-10-28T10:51:08;17.70;99.90
44565;DHT22;30275;51.822;-0.326;2022-10-28T10:53:37;17.70;99.90
44565;DHT22;30275;51.822;-0.326;2022-10-28T10:56:07;17.60;99.90
44565;DHT22;30275;51.822;-0.326;2022-10-28T10:58:36;17.50;99.90
44565;DHT22;30275;51.822;-0.326;2022-10-28T11:01:04;17.40;99.90
44565;DHT22;30275;51.822;-0.326;2022-10-28T11:03:37;17.30;99.90
44565;DHT22;30275;51.822;-0.326;2022-10-28T11:06:19;17.40;99.90
44565;DHT22;30275;51.822;-0.326;2022-10-28T11:08:45;17.60;99.90
44565;DHT22;30275;51.822;-0.326;2022-10-28T11:11:19;17.80;99.90
44565;DHT22;30275;51.822;-0.326;2022-10-28T11:13:46;17.50;99.90
44565;DHT22;30275;51.822;-0.326;2022-10-28T11:16:22;17.40;99.90
44565;DHT22;30275;51.822;-0.326;2022-10-28T11:18:51;17.70;99.90
44565;DHT22;30275;51.822;-0.326;2022-10-28T11:30:05;20.60;99.90
44565;DHT22;30275;51.822;-0.326;2022-10-28T11:35:30;19.50;99.90
44565;DHT22;30275;51.822;-0.326;2022-10-28T12:05:27;18.50;99.90
44565;DHT22;30275;51.822;-0.326;2022-10-28T12:08:12;18.50;99.90
44565;DHT22;30275;51.822;-0.326;2022-10-28T12:10:59;18.40;99.90
44565;DHT22;30275;51.822;-0.326;2022-10-28T12:16:20;18.10;99.90
44565;DHT22;30275;51.822;-0.326;2022-10-28T12:21:42;17.50;99.90
44565;DHT22;30275;51.822;-0.326;2022-10-28T12:24:18;17.50;99.90
44565;DHT22;30275;51.822;-0.326;2022-10-28T12:26:48;17.40;99.90
44565;DHT22;30275;51.822;-0.326;2022-10-28T12:29:23;17.40;99.90
44565;DHT22;30275;51.822;-0.326;2022-10-28T12:31:54;17.50;99.90
44565;DHT22;30275;51.822;-0.326;2022-10-28T12:34:30;17.50;99.90
44565;DHT22;30275;51.822;-0.326;2022-10-28T12:37:15;17.60;99.90
44565;DHT22;30275;51.822;-0.326;2022-10-28T12:40:04;17.80;99.90
44565;DHT22;30275;51.822;-0.326;2022-10-28T12:42:38;18.30;99.90
44565;DHT22;30275;51.822;-0.326;2022-10-28T12:45:11;18.80;99.90
44565;DHT22;30275;51.822;-0.326;2022-10-28T12:47:48;18.80;99.90
44565;DHT22;30275;51.822;-0.326;2022-10-28T12:55:48;18.40;99.90
44565;DHT22;30275;51.822;-0.326;2022-10-28T12:58:40;18.80;99.90
44565;DHT22;30275;51.822;-0.326;2022-10-28T13:01:12;18.70;99.90
44565;DHT22;30275;51.822;-0.326;2022-10-28T13:03:39;18.70;99.90
44565;DHT22;30275;51.822;-0.326;2022-10-28T13:08:51;18.40;99.90
44565;DHT22;30275;51.822;-0.326;2022-10-28T13:15:20;18.50;99.90
44565;DHT22;30275;51.822;-0.326;2022-10-28T13:17:22;18.60;99.90
44565;DHT22;30275;51.822;-0.326;2022-10-28T13:22:54;18.80;99.90
44565;DHT22;30275;51.822;-0.326;2022-10-28T13:28:13;18.80;99.90
44565;DHT22;30275;51.822;-0.326;2022-10-28T13:30:51;18.70;99.90
44565;DHT22;30275;51.822;-0.326;2022-10-28T13:33:22;18.60;99.90
44565;DHT22;30275;51.822;-0.326;2022-10-28T13:35:48;18.60;99.90
44565;DHT22;30275;51.822;-0.326;2022-10-28T13:38:24;18.50;99.90
44565;DHT22;30275;51.822;-0.326;2022-10-28T13:49:32;18.50;99.90
44565;DHT22;30275;51.822;-0.326;2022-10-28T13:52:03;18.50;99.90
44565;DHT22;30275;51.822;-0.326;2022-10-28T14:02:39;18.40;99.90
44565;DHT22;30275;51.822;-0.326;2022-10-28T14:05:10;18.10;99.90
44565;DHT22;30275;51.822;-0.326;2022-10-28T14:07:50;18.00;99.90
44565;DHT22;30275;51.822;-0.326;2022-10-28T14:10:37;18.00;99.90
44565;DHT22;30275;51.822;-0.326;2022-10-28T14:13:19;18.10;99.90
44565;DHT22;30275;51.822;-0.326;2022-10-28T14:15:46;18.30;99.90
44565;DHT22;30275;51.822;-0.326;2022-10-28T14:20:39;18.50;99.90
44565;DHT22;30275;51.822;-0.326;2022-10-28T14:42:05;18.40;99.90
44565;DHT22;30275;51.822;-0.326;2022-10-28T14:50:32;18.30;99.90
44565;DHT22;30275;51.822;-0.326;2022-10-28T14:53:07;18.20;99.90
44565;DHT22;30275;51.822;-0.326;2022-10-28T14:55:35;18.20;99.90
44565;DHT22;30275;51.822;-0.326;2022-10-28T15:00:44;18.00;99.90
44565;DHT22;30275;51.822;-0.326;2022-10-28T15:03:12;17.90;99.90
44565;DHT22;30275;51.822;-0.326;2022-10-28T15:05:38;17.90;99.90
44565;DHT22;30275;51.822;-0.326;2022-10-28T15:08:04;17.70;99.90
44565;DHT22;30275;51.822;-0.326;2022-10-28T15:10:32;17.60;99.90
44565;DHT22;30275;51.822;-0.326;2022-10-28T15:12:59;17.60;99.90
44565;DHT22;30275;51.822;-0.326;2022-10-28T15:15:27;17.60;99.90
44565;DHT22;30275;51.822;-0.326;2022-10-28T15:17:54;17.70;99.90
44565;DHT22;30275;51.822;-0.326;2022-10-28T15:22:48;17.60;99.90
44565;DHT22;30275;51.822;-0.326;2022-10-28T15:25:17;17.70;99.90
44565;DHT22;30275;51.822;-0.326;2022-10-28T15:27:44;17.70;99.90
44565;DHT22;30275;51.822;-0.326;2022-10-28T15:30:19;17.60;99.90
44565;DHT22;30275;51.822;-0.326;2022-10-28T15:32:51;17.60;99.90
44565;DHT22;30275;51.822;-0.326;2022-10-28T15:37:55;17.50;99.90
44565;DHT22;30275;51.822;-0.326;2022-10-28T15:40:30;17.50;99.90
44565;DHT22;30275;51.822;-0.326;2022-10-28T15:42:58;17.40;99.90
44565;DHT22;30275;51.822;-0.326;2022-10-28T15:45:27;17.50;99.90
44565;DHT22;30275;51.822;-0.326;2022-10-28T15:47:53;17.50;99.90
44565;DHT22;30275;51.822;-0.326;2022-10-28T15:50:26;17.50;99.90
44565;DHT22;30275;51.822;-0.326;2022-10-28T15:53:18;17.40;99.90
44565;DHT22;30275;51.822;-0.326;2022-10-28T15:55:40;17.30;99.90
44565;DHT22;30275;51.822;-0.326;2022-10-28T16:00:52;17.30;99.90
44565;DHT22;30275;51.822;-0.326;2022-10-28T16:06:05;17.00;99.90
44565;DHT22;30275;51.822;-0.326;2022-10-28T16:08:42;16.90;99.90
44565;DHT22;30275;51.822;-0.326;2022-10-28T16:11:14;16.90;99.90
44565;DHT22;30275;51.822;-0.326;2022-10-28T16:13:45;16.80;99.90
44565;DHT22;30275;51.822;-0.326;2022-10-28T16:16:34;16.60;99.90
44565;DHT22;30275;51.822;-0.326;2022-10-28T16:19:06;16.50;99.90
44565;DHT22;30275;51.822;-0.326;2022-10-28T16:21:32;16.30;99.90
44565;DHT22;30275;51.822;-0.326;2022-10-28T16:23:59;16.30;99.90
44565;DHT22;30275;51.822;-0.326;2022-10-28T16:26:25;16.10;99.90
44565;DHT22;30275;51.822;-0.326;2022-10-28T16:28:51;15.90;99.90
44565;DHT22;30275;51.822;-0.326;2022-10-28T16:31:18;15.70;99.90
44565;DHT22;30275;51.822;-0.326;2022-10-28T16:33:45;15.60;99.90
44565;DHT22;30275;51.822;-0.326;2022-10-28T16:36:11;15.40;99.90
44565;DHT22;30275;51.822;-0.326;2022-10-28T16:38:37;15.20;99.90
44565;DHT22;30275;51.822;-0.326;2022-10-28T16:41:04;15.10;99.90
44565;DHT22;30275;51.822;-0.326;2022-10-28T16:43:30;15.00;99.90
44565;DHT22;30275;51.822;-0.326;2022-10-28T16:45:58;15.00;99.90
44565;DHT22;30275;51.822;-0.326;2022-10-28T16:48:28;14.90;99.90
44565;DHT22;30275;51.822;-0.326;2022-10-28T16:50:57;14.80;99.90
44565;DHT22;30275;51.822;-0.326;2022-10-28T16:53:23;14.70;99.90
44565;DHT22;30275;51.822;-0.326;2022-10-28T16:55:49;14.50;99.90
44565;DHT22;30275;51.822;-0.326;2022-10-28T16:58:16;14.50;99.90
44565;DHT22;30275;51.822;-0.326;2022-10-28T17:00:42;14.40;99.90
44565;DHT22;30275;51.822;-0.326;2022-10-28T17:03:12;14.40;99.90
44565;DHT22;30275;51.822;-0.326;2022-10-28T17:05:41;14.40;99.90
44565;DHT22;30275;51.822;-0.326;2022-10-28T17:08:09;14.30;99.90
44565;DHT22;30275;51.822;-0.326;2022-10-28T17:10:34;14.20;99.90
44565;DHT22;30275;51.822;-0.326;2022-10-28T17:13:00;13.90;99.90
44565;DHT22;30275;51.822;-0.326;2022-10-28T17:15:27;13.70;99.90
44565;DHT22;30275;51.822;-0.326;2022-10-28T17:17:53;13.40;99.90
44565;DHT22;30275;51.822;-0.326;2022-10-28T17:20:19;13.30;99.90
44565;DHT22;30275;51.822;-0.326;2022-10-28T17:22:45;13.10;99.90
44565;DHT22;30275;51.822;-0.326;2022-10-28T17:25:10;12.90;99.90
44565;DHT22;30275;51.822;-0.326;2022-10-28T17:27:36;12.80;99.90
44565;DHT22;30275;51.822;-0.326;2022-10-28T17:30:02;12.70;99.90
44565;DHT22;30275;51.822;-0.326;2022-10-28T17:32:28;12.40;99.90
44565;DHT22;30275;51.822;-0.326;2022-10-28T17:34:54;12.00;99.90
44565;DHT22;30275;51.822;-0.326;2022-10-28T17:37:19;11.80;99.90
44565;DHT22;30275;51.822;-0.326;2022-10-28T17:39:45;11.70;99.90
44565;DHT22;30275;51.822;-0.326;2022-10-28T17:42:11;11.70;99.90
44565;DHT22;30275;51.822;-0.326;2022-10-28T17:44:36;11.60;99.90
44565;DHT22;30275;51.822;-0.326;2022-10-28T17:47:02;11.60;99.90
44565;DHT22;30275;51.822;-0.326;2022-10-28T17:49:28;11.80;99.90
44565;DHT22;30275;51.822;-0.326;2022-10-28T17:51:54;11.90;99.90
44565;DHT22;30275;51.822;-0.326;2022-10-28T17:54:20;12.30;99.90
44565;DHT22;30275;51.822;-0.326;2022-10-28T17:56:45;12.50;99.90
44565;DHT22;30275;51.822;-0.326;2022-10-28T17:59:12;12.70;99.90
44565;DHT22;30275;51.822;-0.326;2022-10-28T18:01:37;12.80;99.90
44565;DHT22;30275;51.822;-0.326;2022-10-28T18:04:03;12.90;99.90
44565;DHT22;30275;51.822;-0.326;2022-10-28T18:06:30;12.90;99.90
44565;DHT22;30275;51.822;-0.326;2022-10-28T18:08:56;13.10;99.90
44565;DHT22;30275;51.822;-0.326;2022-10-28T18:11:22;13.20;99.90
44565;DHT22;30275;51.822;-0.326;2022-10-28T18:13:49;13.20;99.90
44565;DHT22;30275;51.822;-0.326;2022-10-28T18:16:22;13.10;99.90
44565;DHT22;30275;51.822;-0.326;2022-10-28T18:18:49;13.10;99.90
44565;DHT22;30275;51.822;-0.326;2022-10-28T18:21:16;13.00;99.90
44565;DHT22;30275;51.822;-0.326;2022-10-28T18:23:42;13.00;99.90
44565;DHT22;30275;51.822;-0.326;2022-10-28T18:26:14;13.00;99.90
44565;DHT22;30275;51.822;-0.326;2022-10-28T18:28:42;12.90;99.90
44565;DHT22;30275;51.822;-0.326;2022-10-28T18:31:16;12.90;99.90
44565;DHT22;30275;51.822;-0.326;2022-10-28T18:33:42;12.90;99.90
44565;DHT22;30275;51.822;-0.326;2022-10-28T18:36:20;12.80;99.90
44565;DHT22;30275;51.822;-0.326;2022-10-28T18:38:46;12.70;99.90